createdAt,value
2023-05-13T00:01:27.026Z,15.75
2023-05-13T00:03:59.703Z,15.79
2023-05-13T00:06:32.992Z,15.82
2023-05-13T00:09:05.763Z,15.85
2023-05-13T00:11:38.613Z,15.89
2023-05-13T00:14:12.165Z,15.93
2023-05-13T00:16:46.531Z,15.94
2023-05-13T00:19:19.263Z,15.96
2023-05-13T00:21:51.851Z,15.98
2023-05-13T00:24:24.614Z,15.99
2023-05-13T00:26:57.306Z,15.99
2023-05-13T00:29:31.512Z,16.01
2023-05-13T00:32:06.259Z,16.02
2023-05-13T00:34:39.158Z,16.05
2023-05-13T00:37:12.184Z,16.06
2023-05-13T00:39:44.888Z,16.06
2023-05-13T00:42:17.553Z,16.07
2023-05-13T00:44:50.266Z,16.08
2023-05-13T00:47:24.370Z,16.08
2023-05-13T00:49:57.195Z,16.09
2023-05-13T00:52:30.229Z,16.10
2023-05-13T00:55:04.577Z,16.10
2023-05-13T00:57:37.497Z,16.11
2023-05-13T01:00:11.564Z,16.12
2023-05-13T01:02:52.173Z,16.12
2023-05-13T01:05:32.592Z,16.11
2023-05-13T01:08:07.936Z,16.11
2023-05-13T01:10:42.932Z,16.11
2023-05-13T01:13:18.585Z,16.11
2023-05-13T01:15:53.413Z,16.11
2023-05-13T01:18:29.709Z,16.09
2023-05-13T01:21:02.829Z,16.09
2023-05-13T01:23:36.963Z,16.10
2023-05-13T01:26:09.690Z,16.09
2023-05-13T01:28:42.388Z,16.10
2023-05-13T01:31:15.364Z,16.10
2023-05-13T01:33:48.667Z,16.08
2023-05-13T01:36:21.833Z,16.07
2023-05-13T01:38:57.313Z,16.07
2023-05-13T01:41:29.988Z,16.07
2023-05-13T01:44:02.739Z,16.05
2023-05-13T01:46:35.510Z,16.05
2023-05-13T01:49:10.251Z,16.05
2023-05-13T01:51:43.020Z,16.03
2023-05-13T01:54:17.178Z,16.04
2023-05-13T01:56:49.922Z,16.00
2023-05-13T01:59:22.880Z,15.99
2023-05-13T02:01:55.837Z,15.98
2023-05-13T02:04:28.606Z,15.97
2023-05-13T02:07:01.337Z,15.96
2023-05-13T02:09:35.622Z,15.96
2023-05-13T02:12:08.846Z,15.96
2023-05-13T02:14:41.550Z,15.96
2023-05-13T02:17:14.236Z,15.98
2023-05-13T02:19:46.851Z,15.96
2023-05-13T02:22:19.555Z,15.96
2023-05-13T02:24:53.759Z,15.96
2023-05-13T02:27:26.425Z,15.94
2023-05-13T02:29:59.097Z,15.95
2023-05-13T02:32:31.870Z,15.96
2023-05-13T02:35:04.738Z,15.96
2023-05-13T02:37:37.815Z,15.96
2023-05-13T02:40:13.008Z,15.97
2023-05-13T02:42:45.918Z,15.97
2023-05-13T02:45:18.596Z,15.98
2023-05-13T02:47:51.631Z,15.98
2023-05-13T02:50:24.504Z,15.99
2023-05-13T02:52:57.238Z,15.99
2023-05-13T02:55:31.340Z,15.99
2023-05-13T02:58:04.546Z,16.00
2023-05-13T03:00:37.292Z,16.00
2023-05-13T03:03:10.106Z,16.00
2023-05-13T03:05:42.961Z,16.02
2023-05-13T03:08:16.078Z,16.01
2023-05-13T03:10:50.358Z,16.02
2023-05-13T03:13:23.129Z,16.03
2023-05-13T03:15:55.877Z,16.04
2023-05-13T03:18:31.777Z,16.04
2023-05-13T03:21:04.686Z,16.04
2023-05-13T03:23:37.672Z,16.03
2023-05-13T03:26:11.871Z,16.03
2023-05-13T03:28:44.580Z,16.03
2023-05-13T03:31:17.344Z,16.02
2023-05-13T03:33:50.080Z,16.01
2023-05-13T03:36:22.722Z,16.00
2023-05-13T03:38:55.409Z,16.00
2023-05-13T03:41:29.583Z,16.00
2023-05-13T03:44:02.263Z,15.99
2023-05-13T03:46:35.151Z,15.99
2023-05-13T03:49:08.150Z,15.98
2023-05-13T03:51:40.928Z,15.97
2023-05-13T03:54:13.827Z,15.99
2023-05-13T03:56:47.964Z,15.97
2023-05-13T03:59:20.609Z,15.97
2023-05-13T04:01:53.405Z,15.98
2023-05-13T04:04:26.281Z,15.97
2023-05-13T04:06:59.066Z,15.96
2023-05-13T04:09:31.739Z,15.97
2023-05-13T04:12:06.170Z,15.98
2023-05-13T04:14:38.859Z,15.98
2023-05-13T04:17:11.705Z,15.98
2023-05-13T04:19:44.686Z,15.99
2023-05-13T04:22:17.346Z,15.97
2023-05-13T04:24:52.310Z,15.98
2023-05-13T04:27:26.786Z,15.99
2023-05-13T04:29:59.468Z,16.01
2023-05-13T04:32:32.183Z,16.03
2023-05-13T04:35:05.166Z,16.03
2023-05-13T04:37:37.967Z,16.04
2023-05-13T04:40:11.150Z,16.04
2023-05-13T04:42:45.305Z,16.07
2023-05-13T04:45:18.175Z,16.09
2023-05-13T04:47:50.951Z,16.10
2023-05-13T04:50:23.675Z,16.12
2023-05-13T04:52:56.897Z,16.12
2023-05-13T04:55:29.845Z,16.14
2023-05-13T04:58:03.899Z,16.17
2023-05-13T05:00:36.627Z,16.16
2023-05-13T05:03:09.468Z,16.16
2023-05-13T05:05:42.205Z,16.18
2023-05-13T05:08:14.895Z,16.19
2023-05-13T05:10:47.653Z,16.20
2023-05-13T05:13:21.864Z,16.21
2023-05-13T05:15:54.582Z,16.21
2023-05-13T05:18:27.428Z,16.23
2023-05-13T05:21:02.422Z,16.23
2023-05-13T05:23:35.287Z,16.26
2023-05-13T05:26:11.721Z,16.28
2023-05-13T05:28:47.043Z,16.28
2023-05-13T05:31:19.830Z,16.29
2023-05-13T05:33:52.565Z,16.29
2023-05-13T05:36:25.180Z,16.30
2023-05-13T05:38:57.917Z,16.30
2023-05-13T05:41:30.675Z,16.28
2023-05-13T05:44:04.962Z,16.29
2023-05-13T05:46:37.915Z,16.26
2023-05-13T05:49:10.554Z,16.25
2023-05-13T05:51:43.233Z,16.25
2023-05-13T05:54:16.178Z,16.21
2023-05-13T05:56:48.842Z,16.23
2023-05-13T05:59:22.874Z,16.20
2023-05-13T06:01:55.596Z,16.22
2023-05-13T06:04:28.304Z,16.19
2023-05-13T06:07:01.057Z,16.21
2023-05-13T06:09:34.163Z,16.23
2023-05-13T06:12:07.285Z,16.23
2023-05-13T06:14:41.440Z,16.27
2023-05-13T06:17:14.885Z,16.29
2023-05-13T06:19:47.614Z,16.32
2023-05-13T06:22:20.301Z,16.36
2023-05-13T06:24:53.022Z,16.41
2023-05-13T06:27:25.856Z,16.46
2023-05-13T06:30:00.180Z,16.51
2023-05-13T06:32:33.126Z,16.57
2023-05-13T06:35:06.115Z,16.64
2023-05-13T06:37:39.096Z,16.72
2023-05-13T06:40:12.391Z,16.79
2023-05-13T06:42:45.133Z,16.86
2023-05-13T06:45:23.251Z,16.91
2023-05-13T06:47:56.491Z,16.97
2023-05-13T06:50:29.182Z,17.01
2023-05-13T06:53:01.959Z,17.07
2023-05-13T06:55:41.686Z,17.12
2023-05-13T06:58:14.668Z,17.16
2023-05-13T07:00:48.872Z,17.21
2023-05-13T07:03:21.641Z,17.26
2023-05-13T07:05:54.421Z,17.30
2023-05-13T07:08:27.179Z,17.33
2023-05-13T07:10:59.914Z,17.34
2023-05-13T07:13:34.796Z,17.39
2023-05-13T07:16:09.140Z,17.40
2023-05-13T07:18:42.009Z,17.40
2023-05-13T07:21:14.869Z,17.41
2023-05-13T07:23:47.909Z,17.41
2023-05-13T07:26:21.746Z,17.40
2023-05-13T07:28:54.450Z,17.41
2023-05-13T07:31:29.063Z,17.45
2023-05-13T07:34:01.770Z,17.53
2023-05-13T07:36:34.631Z,17.61
2023-05-13T07:39:08.667Z,17.72
2023-05-13T07:41:41.416Z,17.83
2023-05-13T07:44:15.433Z,17.93
2023-05-13T07:46:51.641Z,18.02
2023-05-13T07:49:24.450Z,18.13
2023-05-13T07:51:57.110Z,18.24
2023-05-13T07:54:30.071Z,18.36
2023-05-13T07:57:04.030Z,18.52
2023-05-13T07:59:36.763Z,18.63
2023-05-13T08:02:10.931Z,18.73
2023-05-13T08:04:43.659Z,18.84
2023-05-13T08:07:16.539Z,18.91
2023-05-13T08:09:49.146Z,19.00
2023-05-13T08:12:21.843Z,19.04
2023-05-13T08:14:54.655Z,19.08
2023-05-13T08:17:28.829Z,19.12
2023-05-13T08:20:02.197Z,19.17
2023-05-13T08:22:34.864Z,19.20
2023-05-13T08:25:07.730Z,19.25
2023-05-13T08:27:40.422Z,19.27
2023-05-13T08:30:13.597Z,19.34
2023-05-13T08:32:48.553Z,19.37
2023-05-13T08:35:21.765Z,19.42
2023-05-13T08:37:54.962Z,19.45
2023-05-13T08:40:27.666Z,19.48
2023-05-13T08:43:01.832Z,19.51
2023-05-13T08:45:34.567Z,19.56
2023-05-13T08:48:10.348Z,19.60
2023-05-13T08:50:43.772Z,19.64
2023-05-13T08:53:18.352Z,19.68
2023-05-13T08:55:51.265Z,19.70
2023-05-13T08:58:24.223Z,19.71
2023-05-13T09:00:57.551Z,19.70
2023-05-13T09:03:32.816Z,19.71
2023-05-13T09:06:05.835Z,19.70
2023-05-13T09:08:38.626Z,19.74
2023-05-13T09:11:11.409Z,19.78
2023-05-13T09:13:44.201Z,19.83
2023-05-13T09:16:17.511Z,19.90
2023-05-13T09:18:56.767Z,19.94
2023-05-13T09:21:31.738Z,20.02
2023-05-13T09:24:10.829Z,20.11
2023-05-13T09:26:43.936Z,20.17
2023-05-13T09:29:20.714Z,20.22
2023-05-13T09:31:54.750Z,20.29
2023-05-13T09:34:29.657Z,20.36
2023-05-13T09:37:03.322Z,20.44
2023-05-13T09:39:40.039Z,20.53
2023-05-13T09:42:16.539Z,20.63
2023-05-13T09:44:49.887Z,20.74
2023-05-13T09:47:25.489Z,20.83
2023-05-13T09:49:59.596Z,20.86
2023-05-13T09:52:32.694Z,20.88
2023-05-13T09:55:06.071Z,20.86
2023-05-13T09:57:39.823Z,20.78
2023-05-13T10:00:21.021Z,20.69
2023-05-13T10:03:02.465Z,20.55
2023-05-13T10:05:36.629Z,20.44
2023-05-13T10:08:10.334Z,20.31
2023-05-13T10:10:43.467Z,20.19
2023-05-13T10:13:17.628Z,20.06
2023-05-13T10:15:51.538Z,19.93
2023-05-13T10:18:25.026Z,19.82
2023-05-13T10:20:59.241Z,19.71
2023-05-13T10:23:32.732Z,19.61
2023-05-13T10:26:07.591Z,19.50
2023-05-13T10:28:40.903Z,19.40
2023-05-13T10:31:13.876Z,19.33
2023-05-13T10:33:46.852Z,19.24
2023-05-13T10:36:31.647Z,19.18
2023-05-13T10:39:12.352Z,19.11
2023-05-13T10:42:11.825Z,19.07
2023-05-13T10:44:44.637Z,19.03
2023-05-13T10:47:18.608Z,19.00
2023-05-13T10:49:52.095Z,18.96
2023-05-13T10:52:42.637Z,18.94
2023-05-13T10:55:18.868Z,18.91
2023-05-13T10:58:10.863Z,18.90
2023-05-13T11:00:44.146Z,18.87
2023-05-13T11:03:29.066Z,18.87
2023-05-13T11:06:05.400Z,18.89
2023-05-13T11:08:40.185Z,18.87
2023-05-13T11:11:31.066Z,18.88
2023-05-13T11:14:08.310Z,18.88
2023-05-13T11:16:46.522Z,18.88
2023-05-13T11:19:23.489Z,18.90
2023-05-13T11:21:57.707Z,18.89
2023-05-13T11:24:32.143Z,18.89
2023-05-13T11:27:14.626Z,18.89
2023-05-13T11:29:51.269Z,18.86
2023-05-13T11:32:42.868Z,18.85
2023-05-13T11:35:20.103Z,18.85
2023-05-13T11:37:52.896Z,18.88
2023-05-13T11:40:28.200Z,18.90
2023-05-13T11:43:01.220Z,18.92
2023-05-13T11:45:34.134Z,18.93
2023-05-13T11:48:18.984Z,18.96
2023-05-13T11:50:52.094Z,18.97
2023-05-13T11:53:24.771Z,18.98
2023-05-13T11:56:10.668Z,19.02
2023-05-13T11:58:43.314Z,19.07
2023-05-13T12:01:16.087Z,19.17
2023-05-13T12:03:49.048Z,19.32
2023-05-13T12:06:21.919Z,19.50
2023-05-13T12:08:54.658Z,19.74
2023-05-13T12:11:28.981Z,20.01
2023-05-13T12:14:01.909Z,20.26
2023-05-13T12:16:34.836Z,20.45
2023-05-13T12:19:08.074Z,20.62
2023-05-13T12:21:40.801Z,20.71
2023-05-13T12:24:20.066Z,20.75
2023-05-13T12:26:54.903Z,20.73
2023-05-13T12:29:27.685Z,20.78
2023-05-13T12:32:04.756Z,20.77
2023-05-13T12:34:38.991Z,20.80
2023-05-13T12:37:12.968Z,20.83
2023-05-13T12:39:45.839Z,20.84
2023-05-13T12:42:19.982Z,20.84
2023-05-13T12:44:53.211Z,20.82
2023-05-13T12:47:26.005Z,20.77
2023-05-13T12:49:59.467Z,20.71
2023-05-13T12:52:32.170Z,20.63
2023-05-13T12:55:05.222Z,20.54
2023-05-13T12:57:39.320Z,20.49
2023-05-13T13:00:12.765Z,20.47
2023-05-13T13:02:45.549Z,20.45
2023-05-13T13:05:18.388Z,20.46
2023-05-13T13:07:51.489Z,20.48
2023-05-13T13:10:24.140Z,20.53
2023-05-13T13:12:58.423Z,20.58
2023-05-13T13:15:31.174Z,20.61
2023-05-13T13:18:04.251Z,20.62
2023-05-13T13:20:37.692Z,20.62
2023-05-13T13:23:10.658Z,20.61
2023-05-13T13:25:43.516Z,20.60
2023-05-13T13:28:17.604Z,20.62
2023-05-13T13:30:50.326Z,20.63
2023-05-13T13:33:23.144Z,20.62
2023-05-13T13:35:55.951Z,20.60
2023-05-13T13:38:28.699Z,20.59
2023-05-13T13:41:01.663Z,20.59
2023-05-13T13:43:35.765Z,20.59
2023-05-13T13:46:08.479Z,20.59
2023-05-13T13:48:41.266Z,20.59
2023-05-13T13:51:14.042Z,20.59
2023-05-13T13:53:46.754Z,20.57
2023-05-13T13:56:20.181Z,20.53
2023-05-13T13:58:54.305Z,20.47
2023-05-13T14:01:27.170Z,20.42
2023-05-13T14:04:11.038Z,20.40
2023-05-13T14:06:44.046Z,20.38
2023-05-13T14:09:17.207Z,20.33
2023-05-13T14:11:49.881Z,20.32
2023-05-13T14:14:25.150Z,20.31
2023-05-13T14:16:57.853Z,20.29
2023-05-13T14:19:30.954Z,20.26
2023-05-13T14:22:03.674Z,20.22
2023-05-13T14:24:36.383Z,20.18
2023-05-13T14:27:09.101Z,20.09
2023-05-13T14:29:43.272Z,20.04
2023-05-13T14:32:15.980Z,19.95
2023-05-13T14:34:48.669Z,19.90
2023-05-13T14:37:21.484Z,19.87
2023-05-13T14:39:54.166Z,19.82
2023-05-13T14:42:26.936Z,19.80
2023-05-13T14:45:01.188Z,19.79
2023-05-13T14:47:33.944Z,19.80
2023-05-13T14:50:07.307Z,19.79
2023-05-13T14:52:40.051Z,19.76
2023-05-13T14:55:13.186Z,19.74
2023-05-13T14:57:45.884Z,19.72
2023-05-13T15:00:21.550Z,19.68
2023-05-13T15:02:54.538Z,19.64
2023-05-13T15:05:27.895Z,19.64
2023-05-13T15:08:01.034Z,19.70
2023-05-13T15:10:33.759Z,19.76
2023-05-13T15:13:06.453Z,19.87
2023-05-13T15:15:40.649Z,19.95
2023-05-13T15:18:13.351Z,20.05
2023-05-13T15:20:46.068Z,20.13
2023-05-13T15:23:18.819Z,20.18
2023-05-13T15:25:52.303Z,20.23
2023-05-13T15:28:25.120Z,20.21
2023-05-13T15:30:59.171Z,20.20
2023-05-13T15:33:32.590Z,20.15
2023-05-13T15:36:05.932Z,20.11
2023-05-13T15:38:38.731Z,20.05
2023-05-13T15:41:11.461Z,19.97
2023-05-13T15:43:44.151Z,19.90
2023-05-13T15:46:18.569Z,19.84
2023-05-13T15:48:51.321Z,19.79
2023-05-13T15:51:24.346Z,19.74
2023-05-13T15:53:57.040Z,19.69
2023-05-13T15:56:29.761Z,19.65
2023-05-13T15:59:02.444Z,19.61
2023-05-13T16:01:37.763Z,19.57
2023-05-13T16:04:10.520Z,19.53
2023-05-13T16:06:43.552Z,19.46
2023-05-13T16:09:16.242Z,19.39
2023-05-13T16:11:48.984Z,19.33
2023-05-13T16:14:21.823Z,19.25
2023-05-13T16:16:56.082Z,19.13
2023-05-13T16:19:29.094Z,19.01
2023-05-13T16:22:21.965Z,18.83
2023-05-13T16:24:55.066Z,18.58
2023-05-13T16:27:28.336Z,18.35
2023-05-13T16:30:01.813Z,18.13
2023-05-13T16:32:36.437Z,17.93
2023-05-13T16:35:11.043Z,17.75
2023-05-13T16:37:44.221Z,17.60
2023-05-13T16:40:17.413Z,17.46
2023-05-13T16:42:50.279Z,17.33
2023-05-13T16:45:23.179Z,17.25
2023-05-13T16:47:57.778Z,17.15
2023-05-13T16:50:30.707Z,17.04
2023-05-13T16:53:03.942Z,16.95
2023-05-13T16:55:36.859Z,16.88
2023-05-13T16:58:09.621Z,16.80
2023-05-13T17:00:42.408Z,16.73
2023-05-13T17:03:16.983Z,16.69
2023-05-13T17:05:50.075Z,16.66
2023-05-13T17:08:24.613Z,16.60
2023-05-13T17:10:57.298Z,16.58
2023-05-13T17:13:30.061Z,16.59
2023-05-13T17:16:02.783Z,16.56
2023-05-13T17:18:36.955Z,16.57
2023-05-13T17:21:09.835Z,16.57
2023-05-13T17:23:42.533Z,16.58
2023-05-13T17:26:15.279Z,16.60
2023-05-13T17:28:47.949Z,16.62
2023-05-13T17:31:21.080Z,16.64
2023-05-13T17:33:55.604Z,16.68
2023-05-13T17:36:28.291Z,16.72
2023-05-13T17:39:00.996Z,16.78
2023-05-13T17:41:33.785Z,16.79
2023-05-13T17:44:06.729Z,16.83
2023-05-13T17:46:39.452Z,16.85
2023-05-13T17:49:13.698Z,16.86
2023-05-13T17:51:46.577Z,16.88
2023-05-13T17:54:19.613Z,16.90
2023-05-13T17:56:52.266Z,16.91
2023-05-13T17:59:25.085Z,16.94
2023-05-13T18:01:57.767Z,16.94
2023-05-13T18:04:32.252Z,16.97
2023-05-13T18:07:05.002Z,16.98
2023-05-13T18:09:37.727Z,17.01
2023-05-13T18:12:10.774Z,17.01
2023-05-13T18:14:43.503Z,17.04
2023-05-13T18:17:16.231Z,17.06
2023-05-13T18:19:50.519Z,17.07
2023-05-13T18:22:23.186Z,17.09
2023-05-13T18:24:56.271Z,17.10
2023-05-13T18:27:28.926Z,17.09
2023-05-13T18:30:01.642Z,17.08
2023-05-13T18:32:34.472Z,17.08
2023-05-13T18:35:09.845Z,17.06
2023-05-13T18:37:42.557Z,17.04
2023-05-13T18:40:15.319Z,17.03
2023-05-13T18:42:48.033Z,17.01
2023-05-13T18:45:21.137Z,17.01
2023-05-13T18:47:55.572Z,16.99
2023-05-13T18:50:29.760Z,17.00
2023-05-13T18:53:02.946Z,16.98
2023-05-13T18:55:36.263Z,16.98
2023-05-13T18:58:08.979Z,16.96
2023-05-13T19:00:41.823Z,16.96
2023-05-13T19:03:14.875Z,16.93
2023-05-13T19:05:49.112Z,16.92
2023-05-13T19:08:22.650Z,16.91
2023-05-13T19:10:55.352Z,16.89
2023-05-13T19:13:39.432Z,16.88
2023-05-13T19:16:19.979Z,16.86
2023-05-13T19:18:52.776Z,16.86
2023-05-13T19:21:26.986Z,16.87
2023-05-13T19:23:59.659Z,16.87
2023-05-13T19:26:32.423Z,16.87
2023-05-13T19:29:07.062Z,16.90
2023-05-13T19:31:40.103Z,16.90
2023-05-13T19:34:14.619Z,16.91
2023-05-13T19:36:49.094Z,16.91
2023-05-13T19:39:21.807Z,16.90
2023-05-13T19:41:54.565Z,16.88
2023-05-13T19:44:28.600Z,16.88
2023-05-13T19:47:01.604Z,16.86
2023-05-13T19:49:34.598Z,16.83
2023-05-13T19:52:09.355Z,16.81
2023-05-13T19:54:42.134Z,16.79
2023-05-13T19:57:14.834Z,16.76
2023-05-13T19:59:47.970Z,16.70
2023-05-13T20:02:21.157Z,16.64
2023-05-13T20:04:53.882Z,16.57
2023-05-13T20:07:28.103Z,16.53
2023-05-13T20:10:01.239Z,16.43
2023-05-13T20:12:34.389Z,16.36
2023-05-13T20:15:07.709Z,16.28
2023-05-13T20:17:41.033Z,16.20
2023-05-13T20:20:14.094Z,16.11
2023-05-13T20:22:48.254Z,16.02
2023-05-13T20:25:21.592Z,15.93
2023-05-13T20:27:54.412Z,15.85
2023-05-13T20:30:27.112Z,15.76
2023-05-13T20:32:59.836Z,15.66
2023-05-13T20:35:32.855Z,15.57
2023-05-13T20:38:07.040Z,15.48
2023-05-13T20:40:39.825Z,15.39
2023-05-13T20:43:12.538Z,15.32
2023-05-13T20:45:45.314Z,15.23
2023-05-13T20:48:18.371Z,15.15
2023-05-13T20:50:51.595Z,15.06
2023-05-13T20:53:26.079Z,14.97
2023-05-13T20:55:58.855Z,14.90
2023-05-13T20:58:31.856Z,14.82
2023-05-13T21:01:04.674Z,14.73
2023-05-13T21:03:37.410Z,14.66
2023-05-13T21:06:10.250Z,14.58
2023-05-13T21:08:44.562Z,14.51
2023-05-13T21:11:17.469Z,14.43
2023-05-13T21:13:50.167Z,14.34
2023-05-13T21:16:22.896Z,14.27
2023-05-13T21:18:55.930Z,14.20
2023-05-13T21:21:28.684Z,14.12
2023-05-13T21:24:02.772Z,14.04
2023-05-13T21:26:35.731Z,13.98
2023-05-13T21:29:08.432Z,13.91
2023-05-13T21:31:41.171Z,13.84
2023-05-13T21:34:14.137Z,13.78
2023-05-13T21:36:46.816Z,13.72
2023-05-13T21:39:20.953Z,13.67
2023-05-13T21:41:54.006Z,13.63
2023-05-13T21:44:26.767Z,13.59
2023-05-13T21:46:59.471Z,13.56
2023-05-13T21:49:32.221Z,13.54
2023-05-13T21:52:04.994Z,13.53
2023-05-13T21:54:39.417Z,13.52
2023-05-13T21:57:12.139Z,13.50
2023-05-13T21:59:45.279Z,13.49
2023-05-13T22:02:18.229Z,13.47
2023-05-13T22:04:51.162Z,13.45
2023-05-13T22:07:24.271Z,13.41
2023-05-13T22:09:58.484Z,13.38
2023-05-13T22:12:31.383Z,13.34
2023-05-13T22:15:04.502Z,13.29
2023-05-13T22:17:37.315Z,13.26
2023-05-13T22:20:10.811Z,13.19
2023-05-13T22:22:43.509Z,13.14
2023-05-13T22:25:17.763Z,13.08
2023-05-13T22:27:52.266Z,13.02
2023-05-13T22:30:25.201Z,12.98
2023-05-13T22:32:58.176Z,12.92
2023-05-13T22:35:32.148Z,12.86
2023-05-13T22:38:05.210Z,12.82
2023-05-13T22:40:39.490Z,12.79
2023-05-13T22:43:12.237Z,12.72
2023-05-13T22:45:45.040Z,12.68
2023-05-13T22:48:18.086Z,12.65
2023-05-13T22:50:50.960Z,12.59
2023-05-13T22:53:24.450Z,12.57
2023-05-13T22:55:58.731Z,12.53
2023-05-13T22:58:31.408Z,12.51
2023-05-13T23:01:04.215Z,12.49
2023-05-13T23:03:37.016Z,12.46
2023-05-13T23:06:10.609Z,12.46
2023-05-13T23:08:43.279Z,12.45
2023-05-13T23:11:17.416Z,12.48
2023-05-13T23:13:50.078Z,12.50
2023-05-13T23:16:22.879Z,12.51
2023-05-13T23:18:55.882Z,12.53
2023-05-13T23:21:28.628Z,12.56
2023-05-13T23:24:01.374Z,12.56
2023-05-13T23:26:35.523Z,12.58
2023-05-13T23:29:08.185Z,12.61
2023-05-13T23:31:41.398Z,12.59
2023-05-13T23:34:14.178Z,12.60
2023-05-13T23:36:46.989Z,12.58
2023-05-13T23:39:19.744Z,12.57
2023-05-13T23:41:53.828Z,12.53
2023-05-13T23:44:26.948Z,12.52
2023-05-13T23:46:59.715Z,12.48
2023-05-13T23:49:32.425Z,12.46
2023-05-13T23:52:05.553Z,12.41
2023-05-13T23:54:38.290Z,12.38
2023-05-13T23:57:12.472Z,12.35
2023-05-13T23:59:45.256Z,12.30
